createdAt,value
2023-03-13T00:00:06.447Z,29.40
2023-03-13T00:05:09.170Z,29.32
2023-03-13T00:10:11.689Z,29.51
2023-03-13T00:15:13.863Z,29.62
2023-03-13T00:20:18.265Z,30.14
2023-03-13T00:25:21.182Z,29.90
2023-03-13T00:30:24.266Z,30.07
2023-03-13T00:35:26.522Z,30.14
2023-03-13T00:40:28.809Z,30.08
2023-03-13T00:45:31.247Z,30.49
2023-03-13T00:50:33.443Z,30.45
2023-03-13T00:55:35.561Z,30.27
2023-03-13T01:00:38.177Z,30.09
2023-03-13T01:05:40.338Z,30.56
2023-03-13T01:10:42.521Z,30.60
2023-03-13T01:15:45.284Z,31.28
2023-03-13T01:20:47.570Z,32.63
2023-03-13T01:25:50.188Z,32.95
2023-03-13T01:30:52.602Z,32.96
2023-03-13T01:36:03.141Z,33.12
2023-03-13T01:41:07.669Z,33.57
2023-03-13T01:46:14.221Z,33.93
2023-03-13T01:51:33.930Z,35.12
2023-03-13T01:57:07.434Z,35.43
2023-03-13T02:02:11.120Z,36.17
2023-03-13T02:07:22.952Z,36.10
2023-03-13T02:12:31.950Z,36.37
2023-03-13T02:17:36.276Z,37.04
2023-03-13T02:23:35.775Z,38.46
2023-03-13T02:28:39.714Z,38.45
2023-03-13T02:33:45.071Z,38.59
2023-03-13T02:38:57.658Z,38.39
2023-03-13T02:43:59.790Z,38.50
2023-03-13T02:49:21.160Z,37.53
2023-03-13T02:54:27.410Z,37.72
2023-03-13T02:59:30.128Z,36.32
2023-03-13T03:04:32.341Z,36.72
2023-03-13T03:09:34.534Z,36.91
2023-03-13T03:14:36.888Z,36.45
2023-03-13T03:19:39.005Z,37.02
2023-03-13T03:24:41.093Z,37.37
2023-03-13T03:29:43.994Z,36.54
2023-03-13T03:34:46.146Z,37.24
2023-03-13T03:39:48.306Z,36.96
2023-03-13T03:44:51.113Z,37.03
2023-03-13T03:49:53.261Z,37.31
2023-03-13T03:54:55.351Z,38.14
2023-03-13T03:59:57.534Z,38.41
2023-03-13T04:04:59.981Z,38.76
2023-03-13T04:10:02.555Z,39.31
2023-03-13T04:15:04.992Z,38.85
2023-03-13T04:20:08.270Z,38.97
2023-03-13T04:25:11.116Z,39.60
2023-03-13T04:30:13.708Z,40.28
2023-03-13T04:35:16.099Z,40.61
2023-03-13T04:40:18.396Z,40.38
2023-03-13T04:45:20.625Z,40.63
2023-03-13T04:50:22.712Z,41.01
2023-03-13T04:55:24.799Z,41.64
2023-03-13T05:00:26.966Z,41.60
2023-03-13T05:05:29.088Z,40.71
2023-03-13T05:10:31.314Z,39.71
2023-03-13T05:15:33.470Z,39.01
2023-03-13T05:20:35.622Z,39.04
2023-03-13T05:25:37.806Z,38.74
2023-03-13T05:30:40.885Z,38.68
2023-03-13T05:35:43.569Z,38.88
2023-03-13T05:40:45.797Z,38.53
2023-03-13T05:45:49.487Z,39.15
2023-03-13T05:50:51.705Z,38.86
2023-03-13T05:55:53.821Z,38.44
2023-03-13T06:00:56.051Z,38.74
2023-03-13T06:05:59.696Z,38.72
2023-03-13T06:11:03.696Z,39.18
2023-03-13T06:16:06.490Z,39.08
2023-03-13T06:21:08.834Z,38.71
2023-03-13T06:26:11.766Z,39.03
2023-03-13T06:31:14.127Z,39.01
2023-03-13T06:36:16.872Z,39.42
2023-03-13T06:41:19.118Z,39.18
2023-03-13T06:46:24.017Z,39.17
2023-03-13T06:51:29.471Z,38.82
2023-03-13T06:56:32.635Z,39.47
2023-03-13T07:01:34.841Z,39.46
2023-03-13T07:06:37.723Z,39.17
2023-03-13T07:11:40.659Z,39.55
2023-03-13T07:16:44.695Z,39.60
2023-03-13T07:21:47.739Z,40.02
2023-03-13T07:27:04.931Z,39.08
2023-03-13T07:32:10.325Z,39.13
2023-03-13T07:37:14.255Z,38.19
2023-03-13T07:42:17.204Z,37.85
2023-03-13T07:47:20.129Z,36.80
2023-03-13T07:52:23.422Z,34.68
2023-03-13T07:57:25.614Z,33.51
2023-03-13T08:02:27.889Z,33.15
2023-03-13T08:07:30.810Z,32.47
2023-03-13T08:12:34.148Z,32.62
2023-03-13T08:17:36.321Z,32.20
2023-03-13T08:22:38.612Z,32.21
2023-03-13T08:27:41.512Z,32.26
2023-03-13T08:32:44.822Z,31.73
2023-03-13T08:37:46.873Z,31.46
2023-03-13T08:42:49.493Z,32.07
2023-03-13T08:47:54.760Z,31.86
2023-03-13T08:52:56.924Z,31.87
2023-03-13T08:57:59.118Z,31.57
2023-03-13T09:03:01.276Z,31.06
2023-03-13T09:08:03.449Z,31.07
2023-03-13T09:13:05.797Z,31.59
2023-03-13T09:18:08.630Z,31.55
2023-03-13T09:23:10.929Z,32.23
2023-03-13T09:28:13.495Z,33.17
2023-03-13T09:33:15.624Z,32.95
2023-03-13T09:38:19.351Z,33.21
2023-03-13T09:43:43.657Z,33.43
2023-03-13T09:48:57.781Z,33.77
2023-03-13T09:54:51.084Z,33.69
2023-03-13T10:00:31.534Z,34.84
2023-03-13T10:05:35.422Z,35.18
2023-03-13T10:10:59.320Z,34.47
2023-03-13T10:16:11.374Z,34.30
2023-03-13T10:21:27.416Z,35.40
2023-03-13T10:26:33.155Z,36.11
2023-03-13T10:31:38.466Z,35.26
2023-03-13T10:36:44.721Z,34.59
2023-03-13T10:41:48.401Z,34.49
2023-03-13T10:46:52.128Z,33.40
2023-03-13T10:52:01.260Z,32.75
2023-03-13T10:57:29.460Z,33.13
2023-03-13T11:02:40.001Z,33.00
2023-03-13T11:07:42.308Z,33.28
2023-03-13T11:12:52.924Z,33.50
2023-03-13T11:18:12.520Z,33.18
2023-03-13T11:23:21.853Z,33.58
2023-03-13T11:28:57.742Z,32.36
2023-03-13T11:34:31.288Z,31.53
2023-03-13T11:39:45.256Z,30.87
2023-03-13T11:44:59.187Z,30.35
2023-03-13T11:50:16.345Z,30.40
2023-03-13T11:55:30.203Z,30.63
2023-03-13T12:00:48.596Z,30.91
2023-03-13T12:05:56.257Z,31.19
2023-03-13T12:11:05.164Z,31.40
2023-03-13T12:16:16.097Z,31.90
2023-03-13T12:21:53.815Z,32.28
2023-03-13T12:27:32.954Z,32.47
2023-03-13T12:32:45.859Z,32.48
2023-03-13T12:37:48.002Z,32.16
2023-03-13T12:43:02.765Z,32.08
2023-03-13T12:48:46.095Z,32.15
2023-03-13T12:54:03.998Z,31.84
2023-03-13T12:59:15.516Z,31.61
2023-03-13T13:04:26.160Z,32.20
2023-03-13T13:09:37.406Z,30.98
2023-03-13T13:14:48.282Z,31.11
2023-03-13T13:19:51.139Z,30.89
2023-03-13T13:25:00.986Z,29.97
2023-03-13T13:30:05.528Z,29.43
2023-03-13T13:35:25.177Z,29.22
2023-03-13T13:40:29.911Z,28.33
2023-03-13T13:45:35.881Z,28.46
2023-03-13T13:50:38.483Z,29.27
2023-03-13T13:55:40.545Z,30.40
2023-03-13T14:00:53.290Z,30.39
2023-03-13T14:06:02.430Z,30.63
2023-03-13T14:11:17.120Z,29.46
2023-03-13T14:16:27.669Z,28.41
2023-03-13T14:21:29.967Z,28.00
2023-03-13T14:26:34.166Z,27.30
2023-03-13T14:31:39.241Z,27.56
2023-03-13T14:36:50.294Z,27.39
2023-03-13T14:41:53.238Z,26.44
2023-03-13T14:46:57.591Z,27.16
2023-03-13T14:52:07.066Z,27.41
2023-03-13T14:57:18.375Z,27.43
2023-03-13T15:02:27.547Z,26.91
2023-03-13T15:08:04.809Z,26.42
2023-03-13T15:13:33.072Z,26.39
2023-03-13T15:18:35.307Z,27.09
2023-03-13T15:23:37.468Z,27.20
2023-03-13T15:28:39.563Z,26.50
2023-03-13T15:33:42.952Z,26.13
2023-03-13T15:38:45.031Z,25.90
2023-03-13T15:43:47.217Z,26.11
2023-03-13T15:48:50.013Z,25.51
2023-03-13T15:53:53.553Z,25.90
2023-03-13T15:58:56.933Z,25.08
2023-03-13T16:04:01.028Z,24.88
2023-03-13T16:09:07.188Z,26.97
2023-03-13T16:14:09.328Z,28.03
2023-03-13T16:19:11.957Z,29.91
2023-03-13T16:24:14.667Z,30.24
2023-03-13T16:29:17.212Z,31.24
2023-03-13T16:34:19.328Z,32.25
2023-03-13T16:39:21.942Z,32.20
2023-03-13T16:44:27.312Z,31.88
2023-03-13T16:49:29.544Z,31.92
2023-03-13T16:54:31.869Z,32.21
2023-03-13T16:59:34.004Z,32.27
2023-03-13T17:04:36.211Z,33.33
2023-03-13T17:09:38.338Z,33.28
2023-03-13T17:14:40.905Z,33.75
2023-03-13T17:19:43.066Z,33.52
2023-03-13T17:24:45.205Z,33.90
2023-03-13T17:29:47.697Z,34.23
2023-03-13T17:34:49.865Z,33.97
2023-03-13T17:39:52.047Z,34.24
2023-03-13T17:44:54.853Z,34.18
2023-03-13T17:49:57.023Z,36.20
2023-03-13T17:54:59.130Z,37.43
2023-03-13T18:00:01.282Z,36.53
2023-03-13T18:05:03.530Z,36.48
2023-03-13T18:10:11.208Z,36.65
2023-03-13T18:15:13.341Z,37.37
2023-03-13T18:20:21.461Z,37.95
2023-03-13T18:25:23.519Z,38.27
2023-03-13T18:30:27.815Z,38.73
2023-03-13T18:35:30.073Z,39.13
2023-03-13T18:40:32.270Z,39.42
2023-03-13T18:45:34.494Z,39.94
2023-03-13T18:50:36.691Z,40.06
2023-03-13T18:55:38.822Z,40.55
2023-03-13T19:00:41.082Z,40.53
2023-03-13T19:05:43.243Z,40.63
2023-03-13T19:10:45.396Z,40.45
2023-03-13T19:15:47.651Z,40.27
2023-03-13T19:20:50.688Z,40.26
2023-03-13T19:25:53.804Z,40.57
2023-03-13T19:30:56.666Z,40.37
2023-03-13T19:35:59.673Z,40.08
2023-03-13T19:41:01.821Z,40.28
2023-03-13T19:46:24.291Z,40.59
2023-03-13T19:51:28.109Z,40.41
2023-03-13T19:56:31.995Z,40.36
2023-03-13T20:01:34.351Z,40.54
2023-03-13T20:06:39.970Z,40.18
2023-03-13T20:11:42.413Z,40.50
2023-03-13T20:16:46.882Z,41.38
2023-03-13T20:21:50.640Z,41.42
2023-03-13T20:26:52.819Z,41.77
2023-03-13T20:31:55.796Z,41.07
2023-03-13T20:37:00.280Z,41.24
2023-03-13T20:42:03.433Z,40.65
2023-03-13T20:47:05.657Z,40.82
2023-03-13T20:52:07.787Z,40.93
2023-03-13T20:57:10.513Z,40.90
2023-03-13T21:02:13.620Z,40.77
2023-03-13T21:07:16.549Z,41.41
2023-03-13T21:12:19.554Z,41.69
2023-03-13T21:17:21.760Z,41.76
2023-03-13T21:22:28.323Z,42.22
2023-03-13T21:27:30.381Z,42.79
2023-03-13T21:32:33.526Z,43.22
2023-03-13T21:37:36.771Z,42.98
2023-03-13T21:42:39.522Z,42.83
2023-03-13T21:47:41.668Z,43.45
2023-03-13T21:52:43.975Z,42.69
2023-03-13T21:57:46.204Z,43.23
2023-03-13T22:02:48.343Z,42.87
2023-03-13T22:07:50.488Z,43.25
2023-03-13T22:12:52.672Z,43.64
2023-03-13T22:17:55.408Z,44.22
2023-03-13T22:22:58.119Z,44.83
2023-03-13T22:28:00.396Z,44.92
2023-03-13T22:33:07.465Z,44.72
2023-03-13T22:38:09.636Z,44.79
2023-03-13T22:43:12.010Z,44.75
2023-03-13T22:48:14.674Z,44.83
2023-03-13T22:53:16.747Z,44.70
2023-03-13T22:58:18.933Z,44.57
2023-03-13T23:03:21.747Z,44.01
2023-03-13T23:08:24.355Z,44.48
2023-03-13T23:13:26.415Z,45.22
2023-03-13T23:18:28.899Z,45.62
2023-03-13T23:23:31.079Z,44.76
2023-03-13T23:28:34.504Z,45.17
2023-03-13T23:33:37.321Z,45.64
2023-03-13T23:38:40.368Z,45.81
2023-03-13T23:43:42.653Z,45.66
2023-03-13T23:48:45.346Z,45.38
2023-03-13T23:53:47.553Z,45.66
2023-03-13T23:58:49.751Z,46.46
